sensor_id;sensor_type;location;lat;lon;timestamp;P1;durP1;ratioP1;P2;durP2;ratioP2
2031;SDS011;27625;50.422;7.944;2024-02-28T00:00:26;47.67;;;23.23;;
2031;SDS011;27625;50.422;7.944;2024-02-28T00:05:24;51.80;;;25.00;;
2031;SDS011;27625;50.422;7.944;2024-02-28T00:07:51;55.23;;;24.40;;
2031;SDS011;27625;50.422;7.944;2024-02-28T00:10:19;52.93;;;24.23;;
2031;SDS011;27625;50.422;7.944;2024-02-28T00:12:46;58.83;;;25.60;;
2031;SDS011;27625;50.422;7.944;2024-02-28T00:15:13;51.47;;;24.17;;
2031;SDS011;27625;50.422;7.944;2024-02-28T00:17:40;55.07;;;23.83;;
2031;SDS011;27625;50.422;7.944;2024-02-28T00:22:45;49.00;;;23.30;;
2031;SDS011;27625;50.422;7.944;2024-02-28T00:25:11;51.90;;;24.30;;
2031;SDS011;27625;50.422;7.944;2024-02-28T00:27:39;45.80;;;21.30;;
2031;SDS011;27625;50.422;7.944;2024-02-28T00:30:06;52.10;;;23.73;;
2031;SDS011;27625;50.422;7.944;2024-02-28T00:32:33;57.77;;;24.77;;
2031;SDS011;27625;50.422;7.944;2024-02-28T00:35:00;53.67;;;24.77;;
2031;SDS011;27625;50.422;7.944;2024-02-28T00:37:28;45.10;;;21.97;;
2031;SDS011;27625;50.422;7.944;2024-02-28T00:39:57;51.60;;;20.73;;
2031;SDS011;27625;50.422;7.944;2024-02-28T00:42:27;46.60;;;23.13;;
2031;SDS011;27625;50.422;7.944;2024-02-28T00:44:58;56.90;;;22.17;;
2031;SDS011;27625;50.422;7.944;2024-02-28T00:47:34;47.87;;;24.03;;
2031;SDS011;27625;50.422;7.944;2024-02-28T00:50:00;51.30;;;22.23;;
2031;SDS011;27625;50.422;7.944;2024-02-28T00:54:59;50.53;;;23.47;;
2031;SDS011;27625;50.422;7.944;2024-02-28T00:57:32;49.37;;;24.53;;
2031;SDS011;27625;50.422;7.944;2024-02-28T01:00:03;53.17;;;22.07;;
2031;SDS011;27625;50.422;7.944;2024-02-28T01:02:31;51.30;;;22.53;;
2031;SDS011;27625;50.422;7.944;2024-02-28T01:04:59;49.40;;;21.80;;
2031;SDS011;27625;50.422;7.944;2024-02-28T01:07:31;44.63;;;21.10;;
2031;SDS011;27625;50.422;7.944;2024-02-28T01:09:59;53.43;;;21.97;;
2031;SDS011;27625;50.422;7.944;2024-02-28T01:12:28;48.03;;;21.90;;
2031;SDS011;27625;50.422;7.944;2024-02-28T01:14:54;57.37;;;23.73;;
2031;SDS011;27625;50.422;7.944;2024-02-28T01:17:21;49.47;;;21.27;;
2031;SDS011;27625;50.422;7.944;2024-02-28T01:19:48;49.30;;;23.23;;
2031;SDS011;27625;50.422;7.944;2024-02-28T01:22:14;49.87;;;23.80;;
2031;SDS011;27625;50.422;7.944;2024-02-28T01:24:41;58.00;;;23.20;;
2031;SDS011;27625;50.422;7.944;2024-02-28T01:27:10;56.40;;;21.90;;
2031;SDS011;27625;50.422;7.944;2024-02-28T01:29:38;57.47;;;24.53;;
2031;SDS011;27625;50.422;7.944;2024-02-28T01:32:05;68.67;;;23.87;;
2031;SDS011;27625;50.422;7.944;2024-02-28T01:34:32;51.70;;;25.90;;
2031;SDS011;27625;50.422;7.944;2024-02-28T01:36:59;58.13;;;21.63;;
2031;SDS011;27625;50.422;7.944;2024-02-28T01:39:26;50.83;;;21.53;;
2031;SDS011;27625;50.422;7.944;2024-02-28T01:41:54;50.60;;;22.63;;
2031;SDS011;27625;50.422;7.944;2024-02-28T01:44:24;48.20;;;22.70;;
2031;SDS011;27625;50.422;7.944;2024-02-28T01:46:51;56.77;;;20.90;;
2031;SDS011;27625;50.422;7.944;2024-02-28T01:49:20;58.23;;;23.23;;
2031;SDS011;27625;50.422;7.944;2024-02-28T01:51:46;58.13;;;22.63;;
2031;SDS011;27625;50.422;7.944;2024-02-28T01:54:14;51.07;;;23.77;;
2031;SDS011;27625;50.422;7.944;2024-02-28T01:56:41;54.43;;;23.20;;
2031;SDS011;27625;50.422;7.944;2024-02-28T02:01:39;54.73;;;23.57;;
2031;SDS011;27625;50.422;7.944;2024-02-28T02:04:07;52.60;;;21.53;;
2031;SDS011;27625;50.422;7.944;2024-02-28T02:06:42;55.57;;;23.57;;
2031;SDS011;27625;50.422;7.944;2024-02-28T02:09:10;52.53;;;22.57;;
2031;SDS011;27625;50.422;7.944;2024-02-28T02:11:37;52.90;;;23.33;;
2031;SDS011;27625;50.422;7.944;2024-02-28T02:14:05;56.23;;;21.63;;
2031;SDS011;27625;50.422;7.944;2024-02-28T02:16:32;49.17;;;21.80;;
2031;SDS011;27625;50.422;7.944;2024-02-28T02:19:01;52.70;;;22.70;;
2031;SDS011;27625;50.422;7.944;2024-02-28T02:21:30;51.60;;;23.53;;
2031;SDS011;27625;50.422;7.944;2024-02-28T02:23:58;58.30;;;23.23;;
2031;SDS011;27625;50.422;7.944;2024-02-28T02:26:25;57.77;;;22.70;;
2031;SDS011;27625;50.422;7.944;2024-02-28T02:31:23;45.77;;;22.20;;
2031;SDS011;27625;50.422;7.944;2024-02-28T02:33:52;64.53;;;22.87;;
2031;SDS011;27625;50.422;7.944;2024-02-28T02:36:21;52.27;;;23.13;;
2031;SDS011;27625;50.422;7.944;2024-02-28T02:38:49;65.10;;;21.60;;
2031;SDS011;27625;50.422;7.944;2024-02-28T02:41:18;55.77;;;23.47;;
2031;SDS011;27625;50.422;7.944;2024-02-28T02:43:46;53.40;;;23.03;;
2031;SDS011;27625;50.422;7.944;2024-02-28T02:46:13;55.13;;;20.97;;
2031;SDS011;27625;50.422;7.944;2024-02-28T02:48:39;43.17;;;20.30;;
2031;SDS011;27625;50.422;7.944;2024-02-28T02:51:14;58.10;;;22.70;;
2031;SDS011;27625;50.422;7.944;2024-02-28T02:56:22;53.33;;;20.23;;
2031;SDS011;27625;50.422;7.944;2024-02-28T02:58:55;56.50;;;23.67;;
2031;SDS011;27625;50.422;7.944;2024-02-28T03:01:24;58.40;;;23.50;;
2031;SDS011;27625;50.422;7.944;2024-02-28T03:03:51;51.33;;;22.23;;
2031;SDS011;27625;50.422;7.944;2024-02-28T03:08:50;60.23;;;21.97;;
2031;SDS011;27625;50.422;7.944;2024-02-28T03:11:17;51.00;;;22.77;;
2031;SDS011;27625;50.422;7.944;2024-02-28T03:13:48;48.20;;;21.70;;
2031;SDS011;27625;50.422;7.944;2024-02-28T03:16:16;58.93;;;24.70;;
2031;SDS011;27625;50.422;7.944;2024-02-28T03:18:48;48.70;;;21.17;;
2031;SDS011;27625;50.422;7.944;2024-02-28T03:21:15;47.83;;;22.10;;
2031;SDS011;27625;50.422;7.944;2024-02-28T03:23:42;50.53;;;21.90;;
2031;SDS011;27625;50.422;7.944;2024-02-28T03:26:09;53.87;;;20.90;;
2031;SDS011;27625;50.422;7.944;2024-02-28T03:28:43;49.07;;;19.50;;
2031;SDS011;27625;50.422;7.944;2024-02-28T03:31:14;46.00;;;21.90;;
2031;SDS011;27625;50.422;7.944;2024-02-28T03:33:41;52.53;;;21.50;;
2031;SDS011;27625;50.422;7.944;2024-02-28T03:36:14;43.80;;;19.30;;
2031;SDS011;27625;50.422;7.944;2024-02-28T03:38:40;56.83;;;20.03;;
2031;SDS011;27625;50.422;7.944;2024-02-28T03:41:07;46.93;;;21.00;;
2031;SDS011;27625;50.422;7.944;2024-02-28T03:43:37;58.83;;;21.30;;
2031;SDS011;27625;50.422;7.944;2024-02-28T03:46:09;59.07;;;20.70;;
2031;SDS011;27625;50.422;7.944;2024-02-28T03:48:38;45.63;;;18.80;;
2031;SDS011;27625;50.422;7.944;2024-02-28T03:51:05;49.03;;;19.73;;
2031;SDS011;27625;50.422;7.944;2024-02-28T03:53:32;45.63;;;20.23;;
2031;SDS011;27625;50.422;7.944;2024-02-28T03:55:59;50.10;;;21.10;;
2031;SDS011;27625;50.422;7.944;2024-02-28T03:58:25;56.33;;;19.73;;
2031;SDS011;27625;50.422;7.944;2024-02-28T04:00:53;50.87;;;21.87;;
2031;SDS011;27625;50.422;7.944;2024-02-28T04:03:20;57.50;;;21.97;;
2031;SDS011;27625;50.422;7.944;2024-02-28T04:05:56;58.73;;;23.70;;
2031;SDS011;27625;50.422;7.944;2024-02-28T04:08:23;46.83;;;22.50;;
2031;SDS011;27625;50.422;7.944;2024-02-28T04:10:51;57.90;;;22.57;;
2031;SDS011;27625;50.422;7.944;2024-02-28T04:13:17;55.80;;;20.50;;
2031;SDS011;27625;50.422;7.944;2024-02-28T04:15:45;55.73;;;21.57;;
2031;SDS011;27625;50.422;7.944;2024-02-28T04:20:47;43.07;;;18.47;;
2031;SDS011;27625;50.422;7.944;2024-02-28T04:23:16;50.67;;;21.40;;
2031;SDS011;27625;50.422;7.944;2024-02-28T04:25:44;40.27;;;17.30;;
2031;SDS011;27625;50.422;7.944;2024-02-28T04:28:11;39.83;;;16.63;;
2031;SDS011;27625;50.422;7.944;2024-02-28T04:30:47;51.70;;;18.50;;
2031;SDS011;27625;50.422;7.944;2024-02-28T04:33:14;44.97;;;19.67;;
2031;SDS011;27625;50.422;7.944;2024-02-28T04:35:50;48.10;;;18.53;;
2031;SDS011;27625;50.422;7.944;2024-02-28T04:38:18;47.23;;;21.83;;
2031;SDS011;27625;50.422;7.944;2024-02-28T04:40:54;46.50;;;20.30;;
2031;SDS011;27625;50.422;7.944;2024-02-28T04:43:20;54.30;;;20.87;;
2031;SDS011;27625;50.422;7.944;2024-02-28T04:45:48;45.70;;;20.33;;
2031;SDS011;27625;50.422;7.944;2024-02-28T04:48:15;60.73;;;20.10;;
2031;SDS011;27625;50.422;7.944;2024-02-28T04:50:41;50.67;;;21.30;;
2031;SDS011;27625;50.422;7.944;2024-02-28T04:53:19;51.03;;;19.37;;
2031;SDS011;27625;50.422;7.944;2024-02-28T04:55:48;48.53;;;21.43;;
2031;SDS011;27625;50.422;7.944;2024-02-28T04:58:15;56.93;;;23.13;;
2031;SDS011;27625;50.422;7.944;2024-02-28T05:00:42;49.70;;;21.10;;
2031;SDS011;27625;50.422;7.944;2024-02-28T05:03:09;49.10;;;19.20;;
2031;SDS011;27625;50.422;7.944;2024-02-28T05:05:36;57.67;;;21.53;;
2031;SDS011;27625;50.422;7.944;2024-02-28T05:08:03;52.97;;;19.80;;
2031;SDS011;27625;50.422;7.944;2024-02-28T05:10:32;47.00;;;20.17;;
2031;SDS011;27625;50.422;7.944;2024-02-28T05:12:59;49.87;;;19.43;;
2031;SDS011;27625;50.422;7.944;2024-02-28T05:15:28;51.33;;;20.20;;
2031;SDS011;27625;50.422;7.944;2024-02-28T05:18:00;51.57;;;22.60;;
2031;SDS011;27625;50.422;7.944;2024-02-28T05:20:29;51.50;;;21.37;;
2031;SDS011;27625;50.422;7.944;2024-02-28T05:22:56;63.83;;;25.27;;
2031;SDS011;27625;50.422;7.944;2024-02-28T05:25:25;49.87;;;22.43;;
2031;SDS011;27625;50.422;7.944;2024-02-28T05:27:52;47.37;;;21.60;;
2031;SDS011;27625;50.422;7.944;2024-02-28T05:32:51;48.60;;;20.47;;
2031;SDS011;27625;50.422;7.944;2024-02-28T05:35:18;56.13;;;22.57;;
2031;SDS011;27625;50.422;7.944;2024-02-28T05:37:47;52.60;;;21.40;;
2031;SDS011;27625;50.422;7.944;2024-02-28T05:40:23;56.50;;;20.30;;
2031;SDS011;27625;50.422;7.944;2024-02-28T05:42:50;50.47;;;20.40;;
2031;SDS011;27625;50.422;7.944;2024-02-28T05:45:20;44.17;;;19.13;;
2031;SDS011;27625;50.422;7.944;2024-02-28T05:47:48;40.40;;;18.33;;
2031;SDS011;27625;50.422;7.944;2024-02-28T05:50:15;51.77;;;20.33;;
2031;SDS011;27625;50.422;7.944;2024-02-28T05:52:49;44.90;;;20.10;;
2031;SDS011;27625;50.422;7.944;2024-02-28T05:55:22;43.53;;;19.43;;
2031;SDS011;27625;50.422;7.944;2024-02-28T05:57:50;49.07;;;22.67;;
2031;SDS011;27625;50.422;7.944;2024-02-28T06:00:24;47.27;;;20.87;;
2031;SDS011;27625;50.422;7.944;2024-02-28T06:02:53;66.23;;;22.33;;
2031;SDS011;27625;50.422;7.944;2024-02-28T06:05:23;47.90;;;19.40;;
2031;SDS011;27625;50.422;7.944;2024-02-28T06:07:49;44.97;;;20.10;;
2031;SDS011;27625;50.422;7.944;2024-02-28T06:10:16;49.53;;;19.93;;
2031;SDS011;27625;50.422;7.944;2024-02-28T06:12:43;51.20;;;20.73;;
2031;SDS011;27625;50.422;7.944;2024-02-28T06:15:10;50.80;;;19.03;;
2031;SDS011;27625;50.422;7.944;2024-02-28T06:20:09;49.67;;;21.53;;
2031;SDS011;27625;50.422;7.944;2024-02-28T06:22:36;50.03;;;21.10;;
2031;SDS011;27625;50.422;7.944;2024-02-28T06:25:03;53.13;;;20.83;;
2031;SDS011;27625;50.422;7.944;2024-02-28T06:27:33;48.77;;;20.63;;
2031;SDS011;27625;50.422;7.944;2024-02-28T06:30:00;48.33;;;19.40;;
2031;SDS011;27625;50.422;7.944;2024-02-28T06:32:35;48.10;;;19.07;;
2031;SDS011;27625;50.422;7.944;2024-02-28T06:35:04;53.93;;;22.00;;
2031;SDS011;27625;50.422;7.944;2024-02-28T06:37:32;50.47;;;18.60;;
2031;SDS011;27625;50.422;7.944;2024-02-28T06:40:00;45.87;;;20.00;;
2031;SDS011;27625;50.422;7.944;2024-02-28T06:42:27;44.97;;;16.90;;
2031;SDS011;27625;50.422;7.944;2024-02-28T06:44:55;43.33;;;17.93;;
2031;SDS011;27625;50.422;7.944;2024-02-28T06:47:22;45.63;;;17.70;;
2031;SDS011;27625;50.422;7.944;2024-02-28T06:49:53;40.67;;;17.80;;
2031;SDS011;27625;50.422;7.944;2024-02-28T06:52:22;40.63;;;17.50;;
2031;SDS011;27625;50.422;7.944;2024-02-28T06:54:50;42.60;;;16.70;;
2031;SDS011;27625;50.422;7.944;2024-02-28T06:57:21;37.23;;;16.37;;
2031;SDS011;27625;50.422;7.944;2024-02-28T06:59:49;45.87;;;18.03;;
2031;SDS011;27625;50.422;7.944;2024-02-28T07:02:17;45.87;;;17.23;;
2031;SDS011;27625;50.422;7.944;2024-02-28T07:04:43;41.40;;;16.70;;
2031;SDS011;27625;50.422;7.944;2024-02-28T07:07:10;42.43;;;17.00;;
2031;SDS011;27625;50.422;7.944;2024-02-28T07:09:45;41.37;;;16.67;;
2031;SDS011;27625;50.422;7.944;2024-02-28T07:12:11;45.63;;;17.33;;
2031;SDS011;27625;50.422;7.944;2024-02-28T07:14:39;41.80;;;17.67;;
2031;SDS011;27625;50.422;7.944;2024-02-28T07:17:07;44.53;;;18.50;;
2031;SDS011;27625;50.422;7.944;2024-02-28T07:21:43;46.80;;;20.43;;
2031;SDS011;27625;50.422;7.944;2024-02-28T07:24:10;48.97;;;20.57;;
2031;SDS011;27625;50.422;7.944;2024-02-28T07:26:37;49.67;;;21.60;;
2031;SDS011;27625;50.422;7.944;2024-02-28T07:29:13;48.90;;;22.37;;
2031;SDS011;27625;50.422;7.944;2024-02-28T07:31:42;45.77;;;22.03;;
2031;SDS011;27625;50.422;7.944;2024-02-28T07:34:16;47.30;;;19.87;;
2031;SDS011;27625;50.422;7.944;2024-02-28T07:36:44;37.60;;;17.70;;
2031;SDS011;27625;50.422;7.944;2024-02-28T07:39:11;46.40;;;20.10;;
2031;SDS011;27625;50.422;7.944;2024-02-28T07:41:38;46.03;;;20.77;;
2031;SDS011;27625;50.422;7.944;2024-02-28T07:44:05;52.83;;;20.03;;
2031;SDS011;27625;50.422;7.944;2024-02-28T07:46:33;50.60;;;19.43;;
2031;SDS011;27625;50.422;7.944;2024-02-28T07:49:00;51.03;;;20.00;;
2031;SDS011;27625;50.422;7.944;2024-02-28T07:51:27;46.03;;;19.37;;
2031;SDS011;27625;50.422;7.944;2024-02-28T07:53:55;40.07;;;17.63;;
2031;SDS011;27625;50.422;7.944;2024-02-28T07:56:23;47.00;;;18.60;;
2031;SDS011;27625;50.422;7.944;2024-02-28T07:58:53;44.97;;;16.93;;
2031;SDS011;27625;50.422;7.944;2024-02-28T08:01:23;46.17;;;18.20;;
2031;SDS011;27625;50.422;7.944;2024-02-28T08:03:51;43.93;;;18.73;;
2031;SDS011;27625;50.422;7.944;2024-02-28T08:06:19;43.80;;;17.80;;
2031;SDS011;27625;50.422;7.944;2024-02-28T08:08:47;42.23;;;17.07;;
2031;SDS011;27625;50.422;7.944;2024-02-28T08:11:16;40.40;;;17.77;;
2031;SDS011;27625;50.422;7.944;2024-02-28T08:13:45;43.80;;;19.00;;
2031;SDS011;27625;50.422;7.944;2024-02-28T08:16:12;49.30;;;19.37;;
2031;SDS011;27625;50.422;7.944;2024-02-28T08:18:39;43.83;;;18.30;;
2031;SDS011;27625;50.422;7.944;2024-02-28T08:21:07;46.50;;;16.60;;
2031;SDS011;27625;50.422;7.944;2024-02-28T08:23:36;47.00;;;18.97;;
2031;SDS011;27625;50.422;7.944;2024-02-28T08:26:03;43.70;;;17.77;;
2031;SDS011;27625;50.422;7.944;2024-02-28T08:28:31;40.87;;;17.90;;
2031;SDS011;27625;50.422;7.944;2024-02-28T08:31:00;41.50;;;17.90;;
2031;SDS011;27625;50.422;7.944;2024-02-28T08:33:28;38.67;;;16.80;;
2031;SDS011;27625;50.422;7.944;2024-02-28T08:35:55;37.57;;;16.70;;
2031;SDS011;27625;50.422;7.944;2024-02-28T08:38:24;38.10;;;17.17;;
2031;SDS011;27625;50.422;7.944;2024-02-28T08:40:57;42.70;;;15.90;;
2031;SDS011;27625;50.422;7.944;2024-02-28T08:43:25;33.80;;;16.03;;
2031;SDS011;27625;50.422;7.944;2024-02-28T08:45:54;43.30;;;16.23;;
2031;SDS011;27625;50.422;7.944;2024-02-28T08:48:21;41.90;;;15.93;;
2031;SDS011;27625;50.422;7.944;2024-02-28T08:50:48;35.87;;;15.07;;
2031;SDS011;27625;50.422;7.944;2024-02-28T08:53:14;31.83;;;14.40;;
2031;SDS011;27625;50.422;7.944;2024-02-28T08:55:41;35.17;;;15.60;;
2031;SDS011;27625;50.422;7.944;2024-02-28T08:58:10;39.50;;;14.33;;
2031;SDS011;27625;50.422;7.944;2024-02-28T09:00:39;46.40;;;17.10;;
2031;SDS011;27625;50.422;7.944;2024-02-28T09:03:08;38.87;;;15.90;;
2031;SDS011;27625;50.422;7.944;2024-02-28T09:05:34;40.13;;;16.20;;
2031;SDS011;27625;50.422;7.944;2024-02-28T09:08:02;46.77;;;15.63;;
2031;SDS011;27625;50.422;7.944;2024-02-28T09:10:29;46.67;;;16.07;;
2031;SDS011;27625;50.422;7.944;2024-02-28T09:12:59;42.20;;;18.33;;
2031;SDS011;27625;50.422;7.944;2024-02-28T09:15:26;39.83;;;15.40;;
2031;SDS011;27625;50.422;7.944;2024-02-28T09:17:53;35.63;;;14.27;;
2031;SDS011;27625;50.422;7.944;2024-02-28T09:20:22;31.63;;;14.93;;
2031;SDS011;27625;50.422;7.944;2024-02-28T09:22:48;35.80;;;17.40;;
2031;SDS011;27625;50.422;7.944;2024-02-28T09:25:16;33.70;;;15.70;;
2031;SDS011;27625;50.422;7.944;2024-02-28T09:27:43;39.17;;;18.10;;
2031;SDS011;27625;50.422;7.944;2024-02-28T09:30:10;35.40;;;15.43;;
2031;SDS011;27625;50.422;7.944;2024-02-28T09:32:38;36.97;;;16.70;;
2031;SDS011;27625;50.422;7.944;2024-02-28T09:35:15;41.90;;;16.60;;
2031;SDS011;27625;50.422;7.944;2024-02-28T09:37:50;36.07;;;15.07;;
2031;SDS011;27625;50.422;7.944;2024-02-28T09:40:16;37.47;;;15.20;;
2031;SDS011;27625;50.422;7.944;2024-02-28T09:42:46;38.37;;;16.53;;
2031;SDS011;27625;50.422;7.944;2024-02-28T09:45:15;40.70;;;15.80;;
2031;SDS011;27625;50.422;7.944;2024-02-28T09:47:43;43.73;;;17.20;;
2031;SDS011;27625;50.422;7.944;2024-02-28T09:50:13;39.43;;;16.33;;
2031;SDS011;27625;50.422;7.944;2024-02-28T09:52:43;37.03;;;15.33;;
2031;SDS011;27625;50.422;7.944;2024-02-28T09:55:12;41.43;;;17.43;;
2031;SDS011;27625;50.422;7.944;2024-02-28T09:57:40;35.30;;;15.80;;
2031;SDS011;27625;50.422;7.944;2024-02-28T10:00:10;43.80;;;16.73;;
2031;SDS011;27625;50.422;7.944;2024-02-28T10:02:37;42.43;;;16.13;;
2031;SDS011;27625;50.422;7.944;2024-02-28T10:05:09;37.80;;;16.20;;
2031;SDS011;27625;50.422;7.944;2024-02-28T10:07:38;36.60;;;13.10;;
2031;SDS011;27625;50.422;7.944;2024-02-28T10:10:13;36.13;;;14.20;;
2031;SDS011;27625;50.422;7.944;2024-02-28T10:12:42;34.70;;;15.90;;
2031;SDS011;27625;50.422;7.944;2024-02-28T10:15:09;29.53;;;12.40;;
2031;SDS011;27625;50.422;7.944;2024-02-28T10:17:40;34.97;;;14.93;;
2031;SDS011;27625;50.422;7.944;2024-02-28T10:20:06;38.37;;;15.80;;
2031;SDS011;27625;50.422;7.944;2024-02-28T10:22:35;35.63;;;15.27;;
2031;SDS011;27625;50.422;7.944;2024-02-28T10:25:02;35.40;;;17.17;;
2031;SDS011;27625;50.422;7.944;2024-02-28T10:27:35;39.07;;;14.43;;
2031;SDS011;27625;50.422;7.944;2024-02-28T10:30:03;32.87;;;16.53;;
2031;SDS011;27625;50.422;7.944;2024-02-28T10:35:02;39.10;;;16.70;;
2031;SDS011;27625;50.422;7.944;2024-02-28T10:37:31;37.13;;;17.03;;
2031;SDS011;27625;50.422;7.944;2024-02-28T10:40:01;34.03;;;17.53;;
2031;SDS011;27625;50.422;7.944;2024-02-28T10:42:36;28.63;;;14.30;;
2031;SDS011;27625;50.422;7.944;2024-02-28T10:45:04;35.47;;;16.43;;
2031;SDS011;27625;50.422;7.944;2024-02-28T10:47:32;39.40;;;16.77;;
2031;SDS011;27625;50.422;7.944;2024-02-28T10:50:01;35.60;;;15.53;;
2031;SDS011;27625;50.422;7.944;2024-02-28T10:52:29;42.93;;;16.60;;
2031;SDS011;27625;50.422;7.944;2024-02-28T10:54:59;38.10;;;16.07;;
2031;SDS011;27625;50.422;7.944;2024-02-28T10:57:28;36.73;;;15.50;;
2031;SDS011;27625;50.422;7.944;2024-02-28T10:59:57;34.83;;;15.10;;
2031;SDS011;27625;50.422;7.944;2024-02-28T11:02:25;35.73;;;16.20;;
2031;SDS011;27625;50.422;7.944;2024-02-28T11:04:55;37.83;;;15.40;;
2031;SDS011;27625;50.422;7.944;2024-02-28T11:07:23;33.00;;;15.20;;
2031;SDS011;27625;50.422;7.944;2024-02-28T11:09:53;31.80;;;14.97;;
2031;SDS011;27625;50.422;7.944;2024-02-28T11:12:28;35.87;;;15.43;;
2031;SDS011;27625;50.422;7.944;2024-02-28T11:15:00;31.10;;;14.10;;
2031;SDS011;27625;50.422;7.944;2024-02-28T11:17:29;28.17;;;13.43;;
2031;SDS011;27625;50.422;7.944;2024-02-28T11:19:58;30.17;;;14.90;;
2031;SDS011;27625;50.422;7.944;2024-02-28T11:22:27;33.47;;;15.77;;
2031;SDS011;27625;50.422;7.944;2024-02-28T11:24:55;28.03;;;13.60;;
2031;SDS011;27625;50.422;7.944;2024-02-28T11:27:24;25.90;;;13.97;;
2031;SDS011;27625;50.422;7.944;2024-02-28T11:29:51;30.00;;;14.30;;
2031;SDS011;27625;50.422;7.944;2024-02-28T11:32:26;33.93;;;15.83;;
2031;SDS011;27625;50.422;7.944;2024-02-28T11:35:00;23.37;;;13.10;;
2031;SDS011;27625;50.422;7.944;2024-02-28T11:37:34;27.87;;;14.47;;
2031;SDS011;27625;50.422;7.944;2024-02-28T11:40:01;28.50;;;13.40;;
2031;SDS011;27625;50.422;7.944;2024-02-28T11:42:29;34.50;;;15.17;;
2031;SDS011;27625;50.422;7.944;2024-02-28T11:44:56;28.60;;;14.77;;
2031;SDS011;27625;50.422;7.944;2024-02-28T11:47:28;84.43;;;40.17;;
2031;SDS011;27625;50.422;7.944;2024-02-28T11:50:02;30.27;;;17.00;;
2031;SDS011;27625;50.422;7.944;2024-02-28T11:52:30;26.20;;;14.53;;
2031;SDS011;27625;50.422;7.944;2024-02-28T11:54:57;27.13;;;13.00;;
2031;SDS011;27625;50.422;7.944;2024-02-28T11:57:24;25.33;;;13.60;;
2031;SDS011;27625;50.422;7.944;2024-02-28T11:59:55;27.87;;;13.27;;
2031;SDS011;27625;50.422;7.944;2024-02-28T12:02:23;28.17;;;13.77;;
2031;SDS011;27625;50.422;7.944;2024-02-28T12:04:53;27.97;;;14.00;;
2031;SDS011;27625;50.422;7.944;2024-02-28T12:07:20;24.60;;;11.80;;
2031;SDS011;27625;50.422;7.944;2024-02-28T12:09:47;21.67;;;11.40;;
2031;SDS011;27625;50.422;7.944;2024-02-28T12:12:15;29.63;;;13.40;;
2031;SDS011;27625;50.422;7.944;2024-02-28T12:14:45;27.47;;;13.50;;
2031;SDS011;27625;50.422;7.944;2024-02-28T12:17:14;29.63;;;13.30;;
2031;SDS011;27625;50.422;7.944;2024-02-28T12:19:42;31.03;;;14.03;;
2031;SDS011;27625;50.422;7.944;2024-02-28T12:22:10;24.17;;;14.53;;
2031;SDS011;27625;50.422;7.944;2024-02-28T12:24:38;29.03;;;13.63;;
2031;SDS011;27625;50.422;7.944;2024-02-28T12:27:05;31.63;;;14.03;;
2031;SDS011;27625;50.422;7.944;2024-02-28T12:29:32;24.27;;;12.87;;
2031;SDS011;27625;50.422;7.944;2024-02-28T12:31:59;24.80;;;13.57;;
2031;SDS011;27625;50.422;7.944;2024-02-28T12:34:33;30.70;;;14.40;;
2031;SDS011;27625;50.422;7.944;2024-02-28T12:36:59;27.33;;;13.53;;
2031;SDS011;27625;50.422;7.944;2024-02-28T12:39:28;26.73;;;13.23;;
2031;SDS011;27625;50.422;7.944;2024-02-28T12:41:54;27.50;;;13.53;;
2031;SDS011;27625;50.422;7.944;2024-02-28T12:44:21;27.80;;;13.67;;
2031;SDS011;27625;50.422;7.944;2024-02-28T12:46:49;27.10;;;13.47;;
2031;SDS011;27625;50.422;7.944;2024-02-28T12:49:15;32.77;;;14.30;;
2031;SDS011;27625;50.422;7.944;2024-02-28T12:51:43;36.00;;;14.10;;
2031;SDS011;27625;50.422;7.944;2024-02-28T12:54:11;27.60;;;12.00;;
2031;SDS011;27625;50.422;7.944;2024-02-28T12:56:43;24.00;;;11.47;;
2031;SDS011;27625;50.422;7.944;2024-02-28T12:59:11;25.57;;;13.10;;
2031;SDS011;27625;50.422;7.944;2024-02-28T13:01:38;26.60;;;11.57;;
2031;SDS011;27625;50.422;7.944;2024-02-28T13:04:05;24.93;;;12.07;;
2031;SDS011;27625;50.422;7.944;2024-02-28T13:06:33;26.33;;;13.73;;
2031;SDS011;27625;50.422;7.944;2024-02-28T13:08:59;28.53;;;14.30;;
2031;SDS011;27625;50.422;7.944;2024-02-28T13:11:26;24.80;;;12.37;;
2031;SDS011;27625;50.422;7.944;2024-02-28T13:13:54;25.73;;;12.50;;
2031;SDS011;27625;50.422;7.944;2024-02-28T13:16:21;25.70;;;12.00;;
2031;SDS011;27625;50.422;7.944;2024-02-28T13:18:48;28.50;;;13.00;;
2031;SDS011;27625;50.422;7.944;2024-02-28T13:21:14;27.13;;;13.40;;
2031;SDS011;27625;50.422;7.944;2024-02-28T13:23:41;22.60;;;12.27;;
2031;SDS011;27625;50.422;7.944;2024-02-28T13:26:07;26.50;;;12.03;;
2031;SDS011;27625;50.422;7.944;2024-02-28T13:28:36;26.27;;;12.33;;
2031;SDS011;27625;50.422;7.944;2024-02-28T13:31:04;27.80;;;12.70;;
2031;SDS011;27625;50.422;7.944;2024-02-28T13:33:31;25.83;;;12.07;;
2031;SDS011;27625;50.422;7.944;2024-02-28T13:35:57;25.20;;;12.50;;
2031;SDS011;27625;50.422;7.944;2024-02-28T13:38:26;23.70;;;11.47;;
2031;SDS011;27625;50.422;7.944;2024-02-28T13:40:55;30.87;;;12.73;;
2031;SDS011;27625;50.422;7.944;2024-02-28T13:43:22;31.43;;;12.30;;
2031;SDS011;27625;50.422;7.944;2024-02-28T13:48:22;23.80;;;12.27;;
2031;SDS011;27625;50.422;7.944;2024-02-28T13:50:49;27.13;;;13.60;;
2031;SDS011;27625;50.422;7.944;2024-02-28T13:53:16;23.10;;;12.23;;
2031;SDS011;27625;50.422;7.944;2024-02-28T13:55:43;20.57;;;11.67;;
2031;SDS011;27625;50.422;7.944;2024-02-28T13:58:10;27.00;;;12.40;;
2031;SDS011;27625;50.422;7.944;2024-02-28T14:00:40;24.23;;;11.50;;
2031;SDS011;27625;50.422;7.944;2024-02-28T14:03:10;25.33;;;12.60;;
2031;SDS011;27625;50.422;7.944;2024-02-28T14:05:38;22.90;;;12.13;;
2031;SDS011;27625;50.422;7.944;2024-02-28T14:08:05;18.80;;;10.47;;
2031;SDS011;27625;50.422;7.944;2024-02-28T14:10:33;25.53;;;12.10;;
2031;SDS011;27625;50.422;7.944;2024-02-28T14:13:00;20.73;;;11.47;;
2031;SDS011;27625;50.422;7.944;2024-02-28T14:15:29;28.33;;;13.43;;
2031;SDS011;27625;50.422;7.944;2024-02-28T14:18:00;21.73;;;12.80;;
2031;SDS011;27625;50.422;7.944;2024-02-28T14:20:28;18.73;;;10.87;;
2031;SDS011;27625;50.422;7.944;2024-02-28T14:22:58;22.40;;;11.37;;
2031;SDS011;27625;50.422;7.944;2024-02-28T14:25:24;21.13;;;10.83;;
2031;SDS011;27625;50.422;7.944;2024-02-28T14:27:52;25.83;;;11.23;;
2031;SDS011;27625;50.422;7.944;2024-02-28T14:30:19;23.97;;;11.10;;
2031;SDS011;27625;50.422;7.944;2024-02-28T14:32:49;19.50;;;10.90;;
2031;SDS011;27625;50.422;7.944;2024-02-28T14:35:16;21.70;;;10.30;;
2031;SDS011;27625;50.422;7.944;2024-02-28T14:37:50;20.40;;;10.57;;
2031;SDS011;27625;50.422;7.944;2024-02-28T14:40:19;24.13;;;11.10;;
2031;SDS011;27625;50.422;7.944;2024-02-28T14:42:51;25.67;;;11.37;;
2031;SDS011;27625;50.422;7.944;2024-02-28T14:45:19;26.70;;;12.33;;
2031;SDS011;27625;50.422;7.944;2024-02-28T14:47:49;19.97;;;10.30;;
2031;SDS011;27625;50.422;7.944;2024-02-28T14:50:16;18.57;;;10.50;;
2031;SDS011;27625;50.422;7.944;2024-02-28T14:52:42;20.67;;;11.03;;
2031;SDS011;27625;50.422;7.944;2024-02-28T14:55:09;22.50;;;11.00;;
2031;SDS011;27625;50.422;7.944;2024-02-28T14:57:39;23.73;;;11.90;;
2031;SDS011;27625;50.422;7.944;2024-02-28T15:00:08;20.70;;;10.67;;
2031;SDS011;27625;50.422;7.944;2024-02-28T15:02:38;23.30;;;10.43;;
2031;SDS011;27625;50.422;7.944;2024-02-28T15:05:07;21.97;;;10.10;;
2031;SDS011;27625;50.422;7.944;2024-02-28T15:07:35;24.37;;;11.80;;
2031;SDS011;27625;50.422;7.944;2024-02-28T15:10:05;19.10;;;10.77;;
2031;SDS011;27625;50.422;7.944;2024-02-28T15:12:34;19.17;;;10.43;;